createdAt,value
2023-01-09T00:07:19.043Z,99804.56
2023-01-09T00:19:25.698Z,99778.91
2023-01-09T00:25:16.444Z,99762.63
2023-01-09T00:31:29.776Z,99776.25
2023-01-09T00:40:50.187Z,99761.69
2023-01-09T00:46:30.840Z,99756.66
2023-01-09T00:58:41.891Z,99730.63
2023-01-09T01:01:47.140Z,99730.69
2023-01-09T01:07:54.765Z,99717.59
2023-01-09T01:17:36.521Z,99713.06
2023-01-09T01:29:40.403Z,99702.53
2023-01-09T01:32:47.513Z,99698.34
2023-01-09T01:38:45.932Z,99732.28
2023-01-09T01:54:55.469Z,99671.59
2023-01-09T02:01:15.043Z,99675.72
2023-01-09T02:04:04.300Z,99675.03
2023-01-09T02:13:13.017Z,99692.78
2023-01-09T02:16:52.360Z,99661.91
2023-01-09T02:29:23.322Z,99704.72
2023-01-09T02:50:49.215Z,99653.78
2023-01-09T02:53:57.510Z,99662.25
2023-01-09T02:58:18.728Z,99694.63
2023-01-09T03:00:17.950Z,99692.91
2023-01-09T03:06:53.850Z,99681.81
2023-01-09T03:21:21.656Z,99637.72
2023-01-09T03:36:37.767Z,99650.34
2023-01-09T03:39:49.735Z,99605.91
2023-01-09T03:42:50.251Z,99597.09
2023-01-09T03:51:54.802Z,99602.16
2023-01-09T03:55:06.867Z,99583.06
2023-01-09T03:58:15.404Z,99572.59
2023-01-09T04:01:54.418Z,99601.41
2023-01-09T04:05:06.396Z,99581.69
2023-01-09T04:11:29.573Z,99615.69
2023-01-09T04:14:45.241Z,99615.56
2023-01-09T04:20:51.689Z,99579.56
2023-01-09T04:26:49.087Z,99575.09
2023-01-09T04:32:45.854Z,99604.69
2023-01-09T04:41:46.323Z,99567.56
2023-01-09T04:47:54.769Z,99566.50
2023-01-09T04:53:51.276Z,99554.47
2023-01-09T05:03:07.874Z,99587.03
2023-01-09T05:09:17.941Z,99544.44
2023-01-09T05:48:17.208Z,99549.31
2023-01-09T06:54:48.184Z,99477.41
2023-01-09T07:24:05.199Z,99485.56
2023-01-09T07:37:37.188Z,99510.09
2023-01-09T08:14:52.348Z,99493.53
2023-01-09T08:21:35.156Z,99517.41
2023-01-09T08:39:19.772Z,99492.91
2023-01-09T08:46:35.094Z,99519.00
2023-01-09T08:56:17.051Z,99550.91
2023-01-09T09:18:36.193Z,99562.84
2023-01-09T10:03:47.894Z,99594.38
2023-01-09T10:17:41.799Z,99592.72
2023-01-09T10:45:32.532Z,99615.66
2023-01-09T12:23:04.873Z,99697.59
2023-01-09T12:29:53.452Z,99705.69
2023-01-09T12:40:28.234Z,99683.28
2023-01-09T12:57:09.664Z,99720.31
2023-01-09T13:07:40.783Z,99735.84
2023-01-09T13:10:57.587Z,99740.91
2023-01-09T13:14:23.355Z,99698.69
2023-01-09T13:17:25.495Z,99725.84
2023-01-09T13:23:46.564Z,99721.69
2023-01-09T13:33:56.111Z,99733.25
2023-01-09T13:40:05.558Z,99722.88
2023-01-09T13:46:17.118Z,99733.41
2023-01-09T13:49:31.935Z,99749.84
2023-01-09T13:52:28.587Z,99756.41
2023-01-09T14:01:50.139Z,99790.97
2023-01-09T14:04:42.946Z,99789.72
2023-01-09T14:29:04.533Z,99817.81
2023-01-09T14:38:45.625Z,99842.25
2023-01-09T14:42:21.668Z,99850.25
2023-01-09T14:45:25.609Z,99820.63
2023-01-09T14:51:23.439Z,99827.75
2023-01-09T14:57:13.339Z,99858.91
2023-01-09T15:03:13.549Z,99842.19
2023-01-09T15:09:42.809Z,99835.47
2023-01-09T15:19:16.349Z,99876.75
2023-01-09T15:28:46.101Z,99899.06
2023-01-09T15:41:20.768Z,99910.31
2023-01-09T15:44:54.295Z,99899.38
2023-01-09T15:50:49.936Z,99899.72
2023-01-09T16:06:38.107Z,99946.41
2023-01-09T16:10:42.926Z,99912.16
2023-01-09T16:16:13.085Z,99907.13
2023-01-09T16:36:11.370Z,99955.19
2023-01-09T16:38:37.974Z,99960.66
2023-01-09T16:41:33.539Z,99959.94
2023-01-09T16:44:00.386Z,99957.72
2023-01-09T16:46:28.423Z,99963.19
2023-01-09T16:49:02.246Z,99965.69
2023-01-09T16:51:34.260Z,99971.56
2023-01-09T16:54:00.874Z,99974.56
2023-01-09T16:56:30.175Z,99978.38
2023-01-09T16:58:59.903Z,99980.44
2023-01-09T17:01:26.707Z,99978.09
2023-01-09T17:03:53.377Z,99975.66
2023-01-09T17:06:30.359Z,99975.53
2023-01-09T17:08:57.676Z,99976.97
2023-01-09T17:11:36.934Z,99964.28
2023-01-09T17:14:04.180Z,99966.69
2023-01-09T17:16:30.902Z,99957.00
2023-01-09T17:18:57.875Z,99965.09
2023-01-09T17:21:29.695Z,99968.34
2023-01-09T17:24:15.910Z,99970.34
2023-01-09T17:27:04.686Z,99970.69
2023-01-09T17:29:32.523Z,99983.03
2023-01-09T17:31:59.224Z,99987.59
2023-01-09T17:34:26.005Z,99984.50
2023-01-09T17:36:55.670Z,99983.88
2023-01-09T17:39:23.742Z,99982.50
2023-01-09T17:41:50.417Z,99982.75
2023-01-09T17:44:17.045Z,99988.88
2023-01-09T17:46:45.032Z,99993.13
2023-01-09T17:49:20.056Z,100001.81
2023-01-09T17:51:46.865Z,99997.66
2023-01-09T17:54:14.810Z,99994.28
2023-01-09T17:56:49.227Z,100002.13
2023-01-09T17:59:16.792Z,100002.25
2023-01-09T18:01:47.714Z,100012.63
2023-01-09T18:04:14.438Z,100013.59
2023-01-09T18:06:41.269Z,100022.97
2023-01-09T18:09:08.310Z,100019.66
2023-01-09T18:11:35.017Z,100025.97
2023-01-09T18:14:12.817Z,100022.50
2023-01-09T18:16:40.237Z,100019.91
2023-01-09T18:19:07.032Z,100019.06
2023-01-09T18:21:33.702Z,100019.19
2023-01-09T18:24:05.134Z,100029.53
2023-01-09T18:26:31.748Z,100028.66
2023-01-09T18:29:00.954Z,100027.63
2023-01-09T18:31:30.683Z,100024.00
2023-01-09T18:34:02.108Z,100030.75
2023-01-09T18:36:31.704Z,100036.75
2023-01-09T18:39:00.695Z,100037.25
2023-01-09T18:41:27.969Z,100041.06
2023-01-09T18:43:57.720Z,100044.38
2023-01-09T18:46:25.424Z,100055.31
2023-01-09T18:48:55.347Z,100058.66
2023-01-09T18:51:28.813Z,100060.22
2023-01-09T18:53:56.000Z,100069.78
2023-01-09T18:56:24.832Z,100070.63
2023-01-09T18:58:58.694Z,100079.34
2023-01-09T19:01:26.884Z,100080.41
2023-01-09T19:03:53.904Z,100090.13
2023-01-09T19:06:20.567Z,100085.88
2023-01-09T19:08:47.321Z,100089.44
2023-01-09T19:11:15.746Z,100088.59
2023-01-09T19:13:42.510Z,100093.13
2023-01-09T19:16:12.641Z,100095.06
2023-01-09T19:18:41.814Z,100091.75
2023-01-09T19:21:22.411Z,100103.19
2023-01-09T19:23:55.098Z,100104.25
2023-01-09T19:26:26.820Z,100107.75
2023-01-09T19:28:58.131Z,100107.97
2023-01-09T19:31:29.104Z,100112.38
2023-01-09T19:33:56.743Z,100105.81
2023-01-09T19:36:23.656Z,100108.47
2023-01-09T19:38:55.716Z,100105.19
2023-01-09T19:41:25.676Z,100107.78
2023-01-09T19:43:52.557Z,100107.84
2023-01-09T19:46:24.409Z,100112.22
2023-01-09T19:48:54.429Z,100114.06
2023-01-09T19:51:22.042Z,100118.44
2023-01-09T19:53:53.709Z,100122.78
2023-01-09T19:56:22.741Z,100130.56
2023-01-09T19:58:51.617Z,100131.41
2023-01-09T20:01:24.811Z,100125.31
2023-01-09T20:03:53.059Z,100134.00
2023-01-09T20:06:24.890Z,100127.19
2023-01-09T20:08:54.984Z,100133.28
2023-01-09T20:11:26.148Z,100135.06
2023-01-09T20:13:53.068Z,100137.75
2023-01-09T20:16:22.248Z,100147.31
2023-01-09T20:18:49.469Z,100142.16
2023-01-09T20:23:50.917Z,100147.19
2023-01-09T20:26:17.911Z,100148.06
2023-01-09T20:28:46.093Z,100149.84
2023-01-09T20:31:16.306Z,100164.31
2023-01-09T20:33:44.056Z,100166.13
2023-01-09T20:36:11.020Z,100166.94
2023-01-09T20:38:39.744Z,100166.81
2023-01-09T20:41:23.869Z,100172.56
2023-01-09T20:43:53.994Z,100179.16
2023-01-09T20:46:23.379Z,100184.13
2023-01-09T20:48:50.128Z,100190.63
2023-01-09T20:51:20.238Z,100190.34
2023-01-09T20:53:51.286Z,100185.91
2023-01-09T20:56:17.913Z,100190.75
2023-01-09T20:58:44.517Z,100189.59
2023-01-09T21:01:14.816Z,100196.44
2023-01-09T21:03:42.195Z,100197.69
2023-01-09T21:06:13.326Z,100200.84
2023-01-09T21:08:45.031Z,100203.13
2023-01-09T21:11:12.128Z,100203.75
2023-01-09T21:13:39.312Z,100207.13
2023-01-09T21:16:09.886Z,100207.81
2023-01-09T21:18:46.199Z,100213.06
2023-01-09T21:21:15.845Z,100231.47
2023-01-09T21:23:54.515Z,100231.66
2023-01-09T21:26:27.726Z,100239.72
2023-01-09T21:28:56.235Z,100242.41
2023-01-09T21:31:33.640Z,100254.78
2023-01-09T21:34:06.319Z,100254.94
2023-01-09T21:36:35.615Z,100257.50
2023-01-09T21:39:02.469Z,100262.66
2023-01-09T21:41:47.834Z,100266.13
2023-01-09T21:44:35.995Z,100272.97
2023-01-09T21:47:03.084Z,100272.91
2023-01-09T21:49:33.666Z,100276.13
2023-01-09T21:52:00.397Z,100275.94
2023-01-09T21:54:36.224Z,100282.88
2023-01-09T21:57:03.020Z,100287.19
2023-01-09T21:59:31.459Z,100295.00
2023-01-09T22:02:07.503Z,100282.97
2023-01-09T22:04:34.157Z,100296.81
2023-01-09T22:07:03.401Z,100298.66
2023-01-09T22:09:30.054Z,100312.66
2023-01-09T22:11:57.885Z,100326.66
2023-01-09T22:14:24.590Z,100327.53
2023-01-09T22:16:51.205Z,100323.31
2023-01-09T22:19:18.178Z,100332.06
2023-01-09T22:21:45.197Z,100344.19
2023-01-09T22:24:16.682Z,100341.59
2023-01-09T22:26:46.581Z,100351.09
2023-01-09T22:29:22.105Z,100340.72
2023-01-09T22:31:48.725Z,100344.16
2023-01-09T22:34:18.888Z,100354.50
2023-01-09T22:36:46.693Z,100353.63
2023-01-09T22:39:14.950Z,100360.53
2023-01-09T22:41:41.671Z,100366.69
2023-01-09T22:44:10.905Z,100371.03
2023-01-09T22:46:38.275Z,100379.59
2023-01-09T22:49:04.990Z,100386.47
2023-01-09T22:51:33.806Z,100384.72
2023-01-09T22:54:01.186Z,100389.84
2023-01-09T22:56:28.047Z,100387.28
2023-01-09T22:58:58.447Z,100392.44
2023-01-09T23:01:25.348Z,100386.38
2023-01-09T23:04:01.176Z,100399.25
2023-01-09T23:06:29.393Z,100409.59
2023-01-09T23:08:56.018Z,100419.97
2023-01-09T23:11:45.579Z,100425.97
2023-01-09T23:14:15.324Z,100430.34
2023-01-09T23:16:46.839Z,100430.34
2023-01-09T23:19:16.464Z,100438.91
2023-01-09T23:21:44.682Z,100444.94
2023-01-09T23:24:15.009Z,100441.47
2023-01-09T23:26:43.588Z,100445.72
2023-01-09T23:29:11.225Z,100442.03
2023-01-09T23:31:37.935Z,100441.88
2023-01-09T23:34:11.033Z,100447.91
2023-01-09T23:36:37.726Z,100447.91
2023-01-09T23:39:08.920Z,100449.66
2023-01-09T23:41:55.136Z,100451.41
2023-01-09T23:44:21.861Z,100461.75
2023-01-09T23:46:48.560Z,100465.25
2023-01-09T23:49:18.835Z,100469.63
2023-01-09T23:51:46.435Z,100471.41
2023-01-09T23:54:14.254Z,100475.59
2023-01-09T23:56:40.917Z,100471.25
2023-01-09T23:59:14.303Z,100474.56
